Time;durP1;ratioP1;P1;durP2;ratioP2;P2;SDS_P1;SDS_P2;PMS_P1;PMS_P2;Temp;Humidity;BMP_temperature;BMP_pressure;BME280_temperature;BME280_humidity;BME280_pressure;Samples;Min_cycle;Max_cycle;Signal;HPM_P1;HPM_P2
2023/01/24 00:00:34;;;;;;;;;;;;;;;28.64;23.78;102330.34;5072130;28;972;-29
2023/01/24 00:03:00;;;;;;;;;;;;;;;29.30;22.83;102334.56;5057460;28;866;-33
2023/01/24 00:05:25;;;;;;;;;;;;;;;29.39;22.83;102340.91;5070806;28;1108;-35
2023/01/24 00:07:50;;;;;;;;;;;;;;;29.51;22.67;102336.06;5057204;28;1111;-29
2023/01/24 00:10:16;;;;;;;;;;;;;;;29.34;22.57;102341.41;5070822;28;1955;-30
2023/01/24 00:12:41;;;;;;;;;;;;;;;27.87;24.06;102335.06;5067953;28;1028;-32
2023/01/24 00:15:06;;;;;;;;;;;;;;;28.20;24.43;102337.31;5072137;28;889;-30
2023/01/24 00:17:32;;;;;;;;;;;;;;;28.31;23.69;102330.81;5057207;28;1052;-29
2023/01/24 00:19:57;;;;;;;;;;;;;;;27.64;24.21;102334.56;5061425;28;1059;-31
2023/01/24 00:22:22;;;;;;;;;;;;;;;28.17;24.46;102334.91;5065381;28;1115;-31
2023/01/24 00:24:48;;;;;;;;;;;;;;;28.84;23.56;102338.28;5074480;28;1048;-31
2023/01/24 00:27:14;;;;;;;;;;;;;;;28.93;23.48;102334.63;5066096;28;858;-33
2023/01/24 00:29:39;;;;;;;;;;;;;;;29.16;23.14;102339.56;5060478;28;1914;-30
2023/01/24 00:32:04;;;;;;;;;;;;;;;29.20;23.18;102335.53;5066167;28;1139;-29
2023/01/24 00:34:30;;;;;;;;;;;;;;;29.30;23.06;102340.00;5069842;28;1116;-29
2023/01/24 00:36:55;;;;;;;;;;;;;;;27.99;23.89;102330.28;5066953;28;1087;-33
2023/01/24 00:39:20;;;;;;;;;;;;;;;28.17;24.10;102340.31;5059074;28;941;-34
2023/01/24 00:41:45;;;;;;;;;;;;;;;29.19;22.91;102339.28;5056408;28;1114;-31
2023/01/24 00:44:11;;;;;;;;;;;;;;;29.31;23.02;102345.25;5073697;28;1071;-36
2023/01/24 00:46:36;;;;;;;;;;;;;;;29.49;22.48;102330.81;5076361;28;1095;-33
2023/01/24 00:49:01;;;;;;;;;;;;;;;28.72;23.48;102325.00;5072482;28;1913;-33
2023/01/24 00:51:27;;;;;;;;;;;;;;;27.91;24.40;102324.78;5066218;28;881;-33
2023/01/24 00:53:52;;;;;;;;;;;;;;;28.81;23.45;102333.19;5076327;28;1142;-33
2023/01/24 00:56:17;;;;;;;;;;;;;;;29.27;22.80;102333.06;5066715;28;1082;-35
2023/01/24 00:58:43;;;;;;;;;;;;;;;29.34;22.70;102325.97;5069500;28;1155;-32
2023/01/24 01:01:08;;;;;;;;;;;;;;;29.39;22.82;102322.78;5056489;28;1064;-34
2023/01/24 01:03:33;;;;;;;;;;;;;;;29.06;22.76;102319.88;5059166;28;920;-30
2023/01/24 01:05:59;;;;;;;;;;;;;;;27.97;23.61;102313.38;5067040;28;1039;-31
2023/01/24 01:08:24;;;;;;;;;;;;;;;28.68;23.67;102317.31;5056695;28;1957;-31
2023/01/24 01:10:50;;;;;;;;;;;;;;;29.23;22.69;102328.94;5056782;28;1123;-31
2023/01/24 01:13:15;;;;;;;;;;;;;;;29.33;22.49;102331.53;5055682;28;1088;-32
2023/01/24 01:15:41;;;;;;;;;;;;;;;29.47;22.46;102324.69;5064967;28;914;-32
2023/01/24 01:18:06;;;;;;;;;;;;;;;28.52;22.90;102329.72;5063194;28;1270;-32
2023/01/24 01:20:31;;;;;;;;;;;;;;;27.87;23.65;102324.25;5075968;28;1044;-30
2023/01/24 01:22:56;;;;;;;;;;;;;;;28.89;23.11;102324.28;5076019;28;1112;-33
2023/01/24 01:25:22;;;;;;;;;;;;;;;29.26;22.72;102322.38;5075841;28;1106;-29
2023/01/24 01:27:47;;;;;;;;;;;;;;;29.35;22.61;102318.69;5060489;28;907;-32
2023/01/24 01:30:12;;;;;;;;;;;;;;;29.58;22.19;102319.00;5064434;28;1952;-30
2023/01/24 01:32:38;;;;;;;;;;;;;;;29.22;22.47;102316.41;5074266;28;1071;-30
2023/01/24 01:35:03;;;;;;;;;;;;;;;27.82;24.19;102309.47;5055367;28;1075;-30
2023/01/24 01:37:28;;;;;;;;;;;;;;;28.64;23.61;102315.94;5057962;28;1132;-30
2023/01/24 01:39:54;;;;;;;;;;;;;;;29.28;22.60;102304.09;5075716;28;845;-32
2023/01/24 01:42:19;;;;;;;;;;;;;;;29.38;22.48;102312.94;5060993;28;1062;-33
2023/01/24 01:44:49;;;;;;;;;;;;;;;29.47;22.38;102313.84;5063796;28;1091;-34
2023/01/24 01:47:20;;;;;;;;;;;;;;;28.51;22.77;102314.47;5056512;28;1092;-31
2023/01/24 01:50:06;;;;;;;;;;;;;;;27.90;23.91;102306.84;5055249;28;1957;-32
2023/01/24 01:52:32;;;;;;;;;;;;;;;29.00;22.94;102310.50;5073722;28;1222;-30
2023/01/24 01:54:59;;;;;;;;;;;;;;;29.32;22.36;102302.75;5057484;28;1083;-32
2023/01/24 01:57:25;;;;;;;;;;;;;;;29.34;22.44;102314.28;5038973;28;1234;-31
2023/01/24 01:59:52;;;;;;;;;;;;;;;29.54;22.27;102316.75;5037974;28;1003;-30
2023/01/24 02:02:18;;;;;;;;;;;;;;;28.57;22.87;102316.56;5051417;28;1065;-30
2023/01/24 02:04:48;;;;;;;;;;;;;;;27.65;23.91;102314.63;5055411;28;1083;-32
2023/01/24 02:07:13;;;;;;;;;;;;;;;28.93;23.21;102312.09;5043875;28;1076;-32
2023/01/24 02:09:42;;;;;;;;;;;;;;;29.31;22.42;102303.78;5062358;28;1897;-34
2023/01/24 02:12:26;;;;;;;;;;;;;;;29.37;22.41;102310.41;5055453;28;1007;-31
2023/01/24 02:17:39;;;;;;;;;;;;;;;27.86;24.06;102306.31;5048540;28;1131;-32
2023/01/24 02:20:23;;;;;;;;;;;;;;;28.34;23.71;102313.47;5074278;28;1144;-29
2023/01/24 02:22:57;;;;;;;;;;;;;;;29.22;22.68;102308.28;5058390;28;1139;-31
2023/01/24 02:25:28;;;;;;;;;;;;;;;29.33;22.54;102305.31;5060662;28;1104;-33
2023/01/24 02:27:54;;;;;;;;;;;;;;;29.46;22.21;102301.31;5075397;28;1043;-34
2023/01/24 02:30:19;;;;;;;;;;;;;;;29.53;22.25;102299.63;5041395;28;1894;-30
2023/01/24 02:32:44;;;;;;;;;;;;;;;28.10;23.58;102298.63;5059413;28;1032;-32
2023/01/24 02:35:29;;;;;;;;;;;;;;;28.13;24.12;102295.63;5058691;28;1111;-29
2023/01/24 02:37:55;;;;;;;;;;;;;;;29.28;22.53;102295.97;5077584;28;1111;-32
2023/01/24 02:40:20;;;;;;;;;;;;;;;29.34;22.41;102300.75;5049154;28;914;-31
2023/01/24 02:42:46;;;;;;;;;;;;;;;29.57;22.00;102305.59;5076883;28;1218;-33
2023/01/24 02:45:15;;;;;;;;;;;;;;;29.60;22.21;102309.84;5061159;28;1084;-31
2023/01/24 02:47:43;;;;;;;;;;;;;;;28.03;24.01;102297.56;5078396;28;1222;-32
2023/01/24 02:50:09;;;;;;;;;;;;;;;28.38;23.71;102308.59;5060344;28;1902;-32
2023/01/24 02:55:18;;;;;;;;;;;;;;;28.10;23.04;102304.91;5077185;28;1024;-34
2023/01/24 03:00:27;;;;;;;;;;;;;;;28.92;23.00;102305.84;5075876;28;1101;-29
2023/01/24 03:02:53;;;;;;;;;;;;;;;28.93;22.90;102312.09;5068098;28;1062;-30
2023/01/24 03:05:18;;;;;;;;;;;;;;;29.02;22.92;102308.50;5062552;28;1091;-32
2023/01/24 03:07:46;;;;;;;;;;;;;;;29.14;22.52;102314.50;5067599;28;1140;-34
2023/01/24 03:10:12;;;;;;;;;;;;;;;29.17;22.65;102310.63;5071818;28;1902;-34
2023/01/24 03:34:29;;;;;;;;;;;;;;;29.29;22.28;102316.63;5057186;28;1086;-32
2023/01/24 03:36:54;;;;;;;;;;;;;;;29.37;22.28;102308.53;5068186;28;1140;-32
2023/01/24 03:42:03;;;;;;;;;;;;;;;28.31;23.38;102308.34;5070651;28;1196;-32
2023/01/24 03:44:28;;;;;;;;;;;;;;;27.81;23.55;102303.19;5058072;28;1163;-32
2023/01/24 03:46:54;;;;;;;;;;;;;;;29.02;22.70;102311.19;5057528;28;1348;-33
2023/01/24 03:49:19;;;;;;;;;;;;;;;28.89;22.45;102295.34;5070545;28;1910;-36
2023/01/24 03:54:28;;;;;;;;;;;;;;;28.53;21.99;102300.78;5066185;28;962;-34
2023/01/24 03:56:53;;;;;;;;;;;;;;;28.72;21.40;102306.03;5062196;28;1015;-34
2023/01/24 03:59:18;;;;;;;;;;;;;;;27.15;22.00;102308.53;5057281;28;1060;-31
2023/01/24 04:01:44;;;;;;;;;;;;;;;26.17;23.37;102316.38;5070640;28;1168;-35
2023/01/24 04:04:11;;;;;;;;;;;;;;;27.19;22.49;102309.09;5057228;28;900;-32
2023/01/24 04:06:36;;;;;;;;;;;;;;;27.75;22.37;102307.38;5072417;28;1067;-33
2023/01/24 04:09:01;;;;;;;;;;;;;;;28.02;21.83;102312.91;5068521;28;1959;-30
2023/01/24 04:11:27;;;;;;;;;;;;;;;27.99;21.85;102314.06;5070337;28;1116;-34
2023/01/24 04:13:52;;;;;;;;;;;;;;;28.41;21.21;102313.69;5065547;28;1230;-34
2023/01/24 04:16:17;;;;;;;;;;;;;;;28.02;21.05;102312.91;5063348;28;1242;-36
2023/01/24 04:18:43;;;;;;;;;;;;;;;26.16;23.19;102306.59;5068753;28;1019;-30
2023/01/24 04:21:08;;;;;;;;;;;;;;;26.46;23.65;102313.94;5071192;28;1088;-32
2023/01/24 04:23:33;;;;;;;;;;;;;;;27.30;22.80;102316.16;5069720;28;1011;-38
2023/01/24 04:26:00;;;;;;;;;;;;;;;27.49;22.21;102320.66;5056732;28;1031;-40
2023/01/24 04:28:25;;;;;;;;;;;;;;;27.53;22.31;102322.06;5057216;28;1956;-38
2023/01/24 04:30:57;;;;;;;;;;;;;;;28.00;21.69;102323.03;5069665;28;1203;-40
2023/01/24 04:33:23;;;;;;;;;;;;;;;28.14;21.24;102326.22;5076759;28;1143;-40
2023/01/24 04:35:48;;;;;;;;;;;;;;;26.18;22.78;102330.72;5076255;28;1028;-39
2023/01/24 04:38:13;;;;;;;;;;;;;;;25.63;23.97;102335.50;5076507;28;1023;-40
2023/01/24 04:40:40;;;;;;;;;;;;;;;25.84;24.17;102333.75;5065746;28;1088;-39
2023/01/24 04:43:05;;;;;;;;;;;;;;;25.79;24.06;102337.69;5065354;28;1124;-39
2023/01/24 04:45:30;;;;;;;;;;;;;;;25.75;24.26;102336.28;5069546;28;1195;-38
2023/01/24 04:47:56;;;;;;;;;;;;;;;23.78;20.43;102328.13;5064428;28;1110;-34
2023/01/24 04:50:21;;;;;;;;;;;;;;;22.65;21.32;102327.69;5073484;28;1905;-32
2023/01/24 04:52:47;;;;;;;;;;;;;;;22.34;21.68;102333.44;5062328;28;828;-30
2023/01/24 04:55:12;;;;;;;;;;;;;;;24.46;23.34;102340.66;5059721;28;992;-40
2023/01/24 04:57:37;;;;;;;;;;;;;;;23.28;20.80;102336.44;5066863;28;1138;-34
2023/01/24 05:00:04;;;;;;;;;;;;;;;22.88;21.02;102341.19;5073367;28;1167;-31
2023/01/24 05:02:29;;;;;;;;;;;;;;;22.33;21.52;102346.94;5075786;28;1533;-33
2023/01/24 05:04:54;;;;;;;;;;;;;;;22.20;21.95;102347.84;5076371;28;1246;-31
2023/01/24 05:07:19;;;;;;;;;;;;;;;24.80;22.63;102355.00;5076488;28;1230;-37
2023/01/24 05:09:45;;;;;;;;;;;;;;;26.05;21.54;102355.25;5075607;28;2359;-35
2023/01/24 05:12:10;;;;;;;;;;;;;;;26.29;21.10;102360.28;5075266;28;1435;-31
2023/01/24 05:14:35;;;;;;;;;;;;;;;26.35;21.33;102358.06;5071689;28;974;-36
2023/01/24 05:17:01;;;;;;;;;;;;;;;26.53;21.03;102355.53;5070547;28;933;-36
2023/01/24 05:19:26;;;;;;;;;;;;;;;24.63;22.49;102351.88;5072954;28;1548;-33
2023/01/24 05:21:51;;;;;;;;;;;;;;;24.15;23.74;102347.66;5066163;28;989;-31
2023/01/24 05:24:18;;;;;;;;;;;;;;;25.33;22.73;102352.44;5074882;28;1079;-30
2023/01/24 05:26:43;;;;;;;;;;;;;;;26.19;21.99;102354.03;5076353;28;1465;-31
2023/01/24 05:29:08;;;;;;;;;;;;;;;26.38;21.29;102341.59;5074178;28;1947;-36
2023/01/24 05:31:34;;;;;;;;;;;;;;;26.68;20.85;102350.59;5075725;28;1076;-33
2023/01/24 05:33:59;;;;;;;;;;;;;;;26.65;21.07;102353.56;5076209;28;1044;-36
2023/01/24 05:36:25;;;;;;;;;;;;;;;26.92;20.59;102349.31;5076558;28;1242;-37
2023/01/24 05:38:50;;;;;;;;;;;;;;;27.41;20.12;102355.69;5075562;28;1107;-38
2023/01/24 05:41:16;;;;;;;;;;;;;;;27.43;19.74;102361.78;5075735;28;1084;-32
2023/01/24 05:43:42;;;;;;;;;;;;;;;27.58;19.72;102364.88;5075690;28;1202;-37
2023/01/24 05:46:08;;;;;;;;;;;;;;;27.70;19.60;102358.31;5074962;28;1511;-33
2023/01/24 05:48:34;;;;;;;;;;;;;;;27.80;19.35;102360.13;5053153;28;1902;-35
2023/01/24 05:51:03;;;;;;;;;;;;;;;27.73;19.75;102370.69;5071360;28;1633;-35
2023/01/24 05:53:29;;;;;;;;;;;;;;;27.84;19.54;102377.78;5070905;28;958;-36
2023/01/24 05:55:55;;;;;;;;;;;;;;;27.93;19.38;102363.34;5068113;28;944;-36
2023/01/24 05:58:20;;;;;;;;;;;;;;;27.96;19.51;102368.44;5077055;28;1043;-33
2023/01/24 06:00:45;;;;;;;;;;;;;;;27.92;19.55;102366.19;5079566;28;1102;-32
2023/01/24 06:03:10;;;;;;;;;;;;;;;27.94;19.51;102375.88;5079026;28;1219;-37
2023/01/24 06:05:36;;;;;;;;;;;;;;;28.06;19.41;102373.81;5079178;28;1215;-30
2023/01/24 06:08:01;;;;;;;;;;;;;;;28.00;19.23;102379.84;5079587;28;1299;-32
2023/01/24 06:10:26;;;;;;;;;;;;;;;27.92;19.34;102385.13;5068173;28;1930;-33
2023/01/24 06:12:52;;;;;;;;;;;;;;;27.93;19.12;102381.41;5072253;28;978;-33
2023/01/24 06:15:17;;;;;;;;;;;;;;;28.04;18.98;102378.56;5078857;28;1109;-34
2023/01/24 06:17:42;;;;;;;;;;;;;;;28.15;18.81;102382.91;5078428;28;898;-32
2023/01/24 06:20:10;;;;;;;;;;;;;;;28.03;19.45;102384.94;5079061;28;976;-36
2023/01/24 06:22:45;;;;;;;;;;;;;;;28.12;19.07;102394.03;5061448;28;1203;-35
2023/01/24 06:25:16;;;;;;;;;;;;;;;28.06;18.93;102397.34;5066004;28;1600;-36
2023/01/24 06:27:42;;;;;;;;;;;;;;;28.08;18.61;102395.31;5061650;28;1159;-35
2023/01/24 06:30:08;;;;;;;;;;;;;;;28.01;18.62;102388.81;5078569;28;1909;-31
2023/01/24 06:32:54;;;;;;;;;;;;;;;28.09;18.82;102388.91;5079020;28;1119;-34
2023/01/24 06:35:28;;;;;;;;;;;;;;;28.08;18.74;102390.75;5064630;28;1286;-38
2023/01/24 06:37:54;;;;;;;;;;;;;;;27.98;18.56;102398.06;5078705;28;1027;-38
2023/01/24 06:40:20;;;;;;;;;;;;;;;27.98;18.74;102395.34;5078695;28;1199;-38
2023/01/24 06:42:46;;;;;;;;;;;;;;;28.03;18.66;102406.56;5078743;28;1083;-34
2023/01/24 06:45:11;;;;;;;;;;;;;;;28.10;18.56;102404.13;5078246;28;1114;-37
2023/01/24 06:47:36;;;;;;;;;;;;;;;27.90;18.98;102412.34;5060385;28;1216;-35
2023/01/24 06:50:04;;;;;;;;;;;;;;;28.09;18.56;102407.84;5078943;28;1906;-33
2023/01/24 06:52:29;;;;;;;;;;;;;;;28.19;18.49;102400.53;5075346;28;1228;-38
2023/01/24 06:54:55;;;;;;;;;;;;;;;28.20;18.81;102406.78;5072786;28;1116;-36
2023/01/24 06:57:20;;;;;;;;;;;;;;;28.21;18.64;102412.03;5070928;28;1037;-33
2023/01/24 06:59:45;;;;;;;;;;;;;;;28.25;18.71;102409.91;5072386;28;1258;-33
2023/01/24 07:02:11;;;;;;;;;;;;;;;28.63;18.73;102404.44;5060104;28;1211;-34
2023/01/24 07:04:36;;;;;;;;;;;;;;;28.49;18.70;102424.78;5075620;28;1056;-41
2023/01/24 07:07:02;;;;;;;;;;;;;;;28.34;18.84;102413.59;5078308;28;1163;-41
2023/01/24 07:09:27;;;;;;;;;;;;;;;28.43;18.90;102426.22;5077197;28;1905;-41
2023/01/24 07:11:55;;;;;;;;;;;;;;;28.51;18.83;102413.78;5080942;28;1324;-40
2023/01/24 07:14:20;;;;;;;;;;;;;;;28.52;18.82;102427.16;5081104;28;1182;-40
2023/01/24 07:16:45;;;;;;;;;;;;;;;28.57;19.19;102427.56;5069422;28;1071;-38
2023/01/24 07:19:13;;;;;;;;;;;;;;;28.63;19.17;102423.38;5071226;28;1121;-40
2023/01/24 07:21:38;;;;;;;;;;;;;;;28.65;19.01;102429.50;5066980;28;1441;-40
2023/01/24 07:24:04;;;;;;;;;;;;;;;28.71;19.00;102423.47;5048659;28;1247;-41
2023/01/24 07:26:29;;;;;;;;;;;;;;;28.64;19.14;102426.94;5053785;28;1224;-40
2023/01/24 07:28:54;;;;;;;;;;;;;;;28.72;19.14;102430.59;5070264;28;1902;-40
2023/01/24 07:31:20;;;;;;;;;;;;;;;28.70;19.31;102429.91;5066018;28;1311;-38
2023/01/24 07:33:45;;;;;;;;;;;;;;;28.80;19.12;102432.53;5067244;28;1282;-39
2023/01/24 07:36:14;;;;;;;;;;;;;;;28.85;19.19;102441.06;5066963;28;1250;-41
2023/01/24 07:38:39;;;;;;;;;;;;;;;28.82;19.12;102435.94;5067430;28;1251;-40
2023/01/24 07:41:07;;;;;;;;;;;;;;;28.79;19.26;102433.56;5070781;28;1235;-34
2023/01/24 07:43:33;;;;;;;;;;;;;;;28.85;19.34;102432.94;5073924;28;1477;-41
2023/01/24 07:45:58;;;;;;;;;;;;;;;28.98;19.26;102441.72;5070075;28;1207;-38
2023/01/24 07:48:23;;;;;;;;;;;;;;;28.83;19.67;102442.19;5065103;28;1909;-37
2023/01/24 07:50:49;;;;;;;;;;;;;;;28.90;19.55;102440.59;5069231;28;1258;-39
2023/01/24 07:53:14;;;;;;;;;;;;;;;28.83;19.61;102442.19;5072496;28;1045;-36
2023/01/24 07:55:39;;;;;;;;;;;;;;;28.91;19.59;102438.75;5069095;28;1310;-42
2023/01/24 07:58:05;;;;;;;;;;;;;;;28.85;19.54;102437.47;5068851;28;1328;-42
2023/01/24 08:00:30;;;;;;;;;;;;;;;28.88;19.47;102437.19;5071877;28;1199;-39
2023/01/24 08:02:55;;;;;;;;;;;;;;;28.86;19.85;102439.22;5057792;28;1134;-40
2023/01/24 08:05:21;;;;;;;;;;;;;;;28.62;19.98;102429.81;5074863;28;1140;-40
2023/01/24 08:07:46;;;;;;;;;;;;;;;28.71;20.16;102437.00;5065701;28;1151;-38
2023/01/24 08:10:11;;;;;;;;;;;;;;;28.84;20.01;102435.78;5070408;28;1901;-38
2023/01/24 08:12:37;;;;;;;;;;;;;;;28.82;19.86;102433.25;5062621;28;1188;-39
2023/01/24 08:15:02;;;;;;;;;;;;;;;28.88;19.82;102436.34;5057021;28;1107;-40
2023/01/24 08:17:27;;;;;;;;;;;;;;;28.87;19.83;102440.03;5062674;28;972;-41
2023/01/24 08:19:53;;;;;;;;;;;;;;;28.82;20.01;102438.66;5069013;28;1184;-38
2023/01/24 08:22:18;;;;;;;;;;;;;;;28.87;19.62;102449.03;5070503;28;1286;-41
2023/01/24 08:24:44;;;;;;;;;;;;;;;28.71;20.14;102438.88;5064988;28;1168;-39
2023/01/24 08:27:10;;;;;;;;;;;;;;;28.85;19.71;102438.34;5069719;28;1305;-41
2023/01/24 08:29:35;;;;;;;;;;;;;;;28.87;19.71;102438.19;5065940;28;1955;-40
2023/01/24 08:32:00;;;;;;;;;;;;;;;28.82;19.77;102438.66;5068631;28;1275;-39
2023/01/24 08:34:26;;;;;;;;;;;;;;;28.79;19.90;102438.09;5071880;28;1267;-38
2023/01/24 08:36:51;;;;;;;;;;;;;;;28.78;19.96;102431.00;5076951;28;1031;-35
2023/01/24 08:39:16;;;;;;;;;;;;;;;27.94;21.01;102434.53;5064655;28;1298;-34
2023/01/24 08:41:46;;;;;;;;;;;;;;;28.02;21.02;102428.38;5075651;28;933;-29
2023/01/24 08:44:15;;;;;;;;;;;;;;;28.64;20.45;102435.94;5063177;28;1198;-40
2023/01/24 08:46:40;;;;;;;;;;;;;;;28.77;19.58;102437.41;5064279;28;1218;-37
2023/01/24 08:49:06;;;;;;;;;;;;;;;28.83;18.71;102437.63;5074871;28;1910;-41
2023/01/24 08:51:32;;;;;;;;;;;;;;;29.13;19.21;102442.84;5062985;28;1202;-40
2023/01/24 08:53:58;;;;;;;;;;;;;;;27.73;20.33;102436.44;5074919;28;1227;-40
2023/01/24 08:56:23;;;;;;;;;;;;;;;27.43;20.84;102440.16;5062961;28;1115;-40
2023/01/24 08:58:48;;;;;;;;;;;;;;;28.85;19.60;102442.91;5074871;28;1067;-40
2023/01/24 09:01:13;;;;;;;;;;;;;;;28.19;20.51;102437.56;5063248;28;1523;-39
2023/01/24 09:03:39;;;;;;;;;;;;;;;27.18;21.94;102435.19;5075766;28;1174;-41
2023/01/24 09:06:04;;;;;;;;;;;;;;;26.70;22.76;102428.72;5062972;28;1155;-40
2023/01/24 09:08:29;;;;;;;;;;;;;;;26.55;22.79;102425.56;5075434;28;1906;-41
2023/01/24 09:10:57;;;;;;;;;;;;;;;26.56;23.17;102421.91;5071576;28;1560;-37
2023/01/24 09:13:22;;;;;;;;;;;;;;;26.69;22.64;102417.09;5075524;28;1094;-39
2023/01/24 09:15:47;;;;;;;;;;;;;;;27.27;22.25;102417.28;5066861;28;1214;-34
2023/01/24 09:18:13;;;;;;;;;;;;;;;27.49;21.80;102413.41;5073806;28;944;-34
2023/01/24 09:20:38;;;;;;;;;;;;;;;28.23;21.08;102411.91;5060337;28;1158;-41
2023/01/24 09:23:11;;;;;;;;;;;;;;;28.73;20.30;102416.06;5067951;28;1271;-40
2023/01/24 09:25:37;;;;;;;;;;;;;;;28.31;20.51;102408.47;5064721;28;1216;-40
2023/01/24 09:28:02;;;;;;;;;;;;;;;27.70;21.74;102409.69;5073413;28;1076;-39
2023/01/24 09:30:27;;;;;;;;;;;;;;;28.21;20.80;102398.53;5071630;28;1969;-40
2023/01/24 09:32:53;;;;;;;;;;;;;;;28.63;20.69;102404.44;5064200;28;1203;-39
2023/01/24 09:35:18;;;;;;;;;;;;;;;29.72;19.21;102405.34;5069373;28;1092;-40
2023/01/24 09:37:44;;;;;;;;;;;;;;;26.53;22.49;102404.13;5070565;28;1128;-41
2023/01/24 09:40:30;;;;;;;;;;;;;;;26.82;22.54;102397.06;5072383;28;1175;-40
2023/01/24 09:42:58;;;;;;;;;;;;;;;28.11;20.75;102398.56;5073207;28;1165;-40
2023/01/24 09:45:30;;;;;;;;;;;;;;;28.11;19.76;102395.88;5079631;28;1338;-39
2023/01/24 09:48:06;;;;;;;;;;;;;;;28.44;19.57;102395.44;5061604;28;1139;-39
2023/01/24 09:50:42;;;;;;;;;;;;;;;28.34;19.67;102389.25;5079230;28;1910;-40
2023/01/24 09:53:20;;;;;;;;;;;;;;;29.17;18.61;102387.34;5061112;28;1187;-40
2023/01/24 09:55:45;;;;;;;;;;;;;;;28.94;17.52;102390.53;5061615;28;1044;-39
2023/01/24 09:58:18;;;;;;;;;;;;;;;28.92;17.65;102380.84;5061741;28;925;-40
2023/01/24 10:00:44;;;;;;;;;;;;;;;28.72;18.04;102368.31;5061634;28;1056;-42
2023/01/24 10:03:14;;;;;;;;;;;;;;;29.07;17.98;102356.78;5079603;28;1166;-37
2023/01/24 10:05:39;;;;;;;;;;;;;;;29.14;17.88;102366.00;5079369;28;1028;-40
2023/01/24 10:08:17;;;;;;;;;;;;;;;28.49;18.71;102373.34;5061003;28;1094;-31
2023/01/24 10:10:42;;;;;;;;;;;;;;;29.01;18.05;102360.13;5079313;28;1902;-31
2023/01/24 10:13:22;;;;;;;;;;;;;;;29.05;18.03;102359.66;5075125;28;1238;-31
2023/01/24 10:15:50;;;;;;;;;;;;;;;29.50;17.55;102351.47;5075323;28;1052;-31
2023/01/24 10:18:28;;;;;;;;;;;;;;;29.69;17.44;102355.88;5079188;28;1047;-31
2023/01/24 10:20:53;;;;;;;;;;;;;;;29.52;17.14;102354.03;5074118;28;1480;-33
2023/01/24 10:23:26;;;;;;;;;;;;;;;29.24;17.69;102351.47;5078632;28;1008;-32
2023/01/24 10:25:59;;;;;;;;;;;;;;;29.76;16.98;102347.91;5067323;28;1077;-34
2023/01/24 10:28:28;;;;;;;;;;;;;;;27.44;19.04;102337.34;5051911;28;1890;-35
2023/01/24 10:31:11;;;;;;;;;;;;;;;27.05;19.79;102340.09;5062693;28;1008;-30
2023/01/24 10:33:39;;;;;;;;;;;;;;;28.89;18.58;102335.97;5054057;28;1131;-30
2023/01/24 10:36:06;;;;;;;;;;;;;;;29.61;17.97;102336.84;5060121;28;1161;-34
2023/01/24 10:38:31;;;;;;;;;;;;;;;29.67;17.74;102340.75;5060413;28;1587;-30
2023/01/24 10:41:12;;;;;;;;;;;;;;;29.53;17.83;102336.78;5038991;28;1438;-31
2023/01/24 10:43:37;;;;;;;;;;;;;;;29.53;17.82;102334.06;5065361;28;1183;-33
2023/01/24 10:46:12;;;;;;;;;;;;;;;29.68;17.90;102334.31;5050962;28;1156;-33
2023/01/24 10:48:37;;;;;;;;;;;;;;;29.72;17.85;102327.56;5078481;28;1953;-32
2023/01/24 10:51:09;;;;;;;;;;;;;;;29.87;17.67;102327.78;5077519;28;1018;-31
2023/01/24 10:53:34;;;;;;;;;;;;;;;29.80;17.88;102329.44;5069734;28;1191;-35
2023/01/24 10:56:03;;;;;;;;;;;;;;;29.67;18.15;102324.47;5059388;28;1236;-31
2023/01/24 10:58:51;;;;;;;;;;;;;;;29.81;17.88;102323.84;5062616;28;1307;-33
2023/01/24 11:01:20;;;;;;;;;;;;;;;30.02;17.96;102319.88;5067118;28;1638;-33
2023/01/24 11:03:46;;;;;;;;;;;;;;;30.11;18.00;102325.31;5077319;28;1343;-30
2023/01/24 11:06:22;;;;;;;;;;;;;;;28.37;19.49;102323.97;5070128;28;966;-30
2023/01/24 11:08:48;;;;;;;;;;;;;;;27.04;20.89;102319.50;5069567;28;1965;-29
2023/01/24 11:11:22;;;;;;;;;;;;;;;27.81;20.68;102314.00;5049884;28;1533;-31
2023/01/24 11:13:48;;;;;;;;;;;;;;;29.45;19.09;102314.00;5073575;28;1117;-34
2023/01/24 11:16:16;;;;;;;;;;;;;;;29.60;18.56;102316.16;5047929;28;1298;-30
2023/01/24 11:18:50;;;;;;;;;;;;;;;29.82;18.50;102311.16;5070662;28;1088;-31
2023/01/24 11:21:16;;;;;;;;;;;;;;;29.96;18.41;102316.97;5048347;28;1131;-31
2023/01/24 11:23:41;;;;;;;;;;;;;;;29.93;18.28;102316.28;5065347;28;901;-29
2023/01/24 11:26:20;;;;;;;;;;;;;;;29.94;18.46;102312.56;5073187;28;1152;-33
2023/01/24 11:28:45;;;;;;;;;;;;;;;30.28;18.04;102318.13;5051316;28;1898;-32
2023/01/24 11:31:30;;;;;;;;;;;;;;;30.32;17.98;102319.47;5047590;28;1239;-30
2023/01/24 11:34:02;;;;;;;;;;;;;;;30.10;18.23;102304.63;5066755;28;1667;-30
2023/01/24 11:36:46;;;;;;;;;;;;;;;28.39;19.30;102304.88;5070884;28;1089;-30
2023/01/24 11:39:13;;;;;;;;;;;;;;;27.16;20.97;102293.19;5068014;28;985;-31
2023/01/24 11:41:42;;;;;;;;;;;;;;;28.41;20.29;102309.13;5065645;28;954;-32
2023/01/24 11:44:14;;;;;;;;;;;;;;;28.80;19.75;102312.50;5053939;28;951;-34
2023/01/24 11:46:39;;;;;;;;;;;;;;;27.36;20.67;102312.91;5065088;28;1088;-30
2023/01/24 11:49:10;;;;;;;;;;;;;;;26.60;21.81;102308.13;5069196;28;1926;-31
2023/01/24 11:52:08;;;;;;;;;;;;;;;27.99;20.60;102305.94;5063512;28;1294;-31
2023/01/24 11:54:56;;;;;;;;;;;;;;;28.50;20.04;102317.31;5020537;28;1122;-34
2023/01/24 11:57:40;;;;;;;;;;;;;;;28.59;19.62;102302.88;5067784;28;1078;-34
2023/01/24 12:00:18;;;;;;;;;;;;;;;27.70;21.09;102300.69;5066544;28;1245;-34
2023/01/24 12:03:08;;;;;;;;;;;;;;;28.32;20.19;102302.75;5048852;28;1135;-30
2023/01/24 12:05:36;;;;;;;;;;;;;;;28.28;20.09;102295.94;5050477;28;881;-34
2023/01/24 12:08:08;;;;;;;;;;;;;;;28.42;19.93;102294.59;5068319;28;1151;-32
2023/01/24 12:10:52;;;;;;;;;;;;;;;28.20;20.37;102302.13;5065846;28;1983;-33
2023/01/24 12:13:17;;;;;;;;;;;;;;;28.23;20.18;102287.44;5046915;28;983;-35
2023/01/24 12:15:57;;;;;;;;;;;;;;;28.43;20.06;102290.03;5067458;28;1010;-33
2023/01/24 12:18:41;;;;;;;;;;;;;;;27.55;20.69;102294.88;5065585;28;987;-35
2023/01/24 12:21:10;;;;;;;;;;;;;;;26.22;21.96;102297.13;5072119;28;1212;-32
2023/01/24 12:23:42;;;;;;;;;;;;;;;26.34;22.75;102299.72;5065658;28;1113;-34
2023/01/24 12:26:14;;;;;;;;;;;;;;;27.81;20.79;102302.38;5073524;28;930;-33
2023/01/24 12:28:45;;;;;;;;;;;;;;;28.08;20.73;102297.91;5054192;28;1902;-33
2023/01/24 12:31:11;;;;;;;;;;;;;;;28.35;20.02;102293.50;5066848;28;1066;-33
2023/01/24 12:33:42;;;;;;;;;;;;;;;26.35;19.94;102298.72;5069428;28;1100;-34
2023/01/24 12:36:37;;;;;;;;;;;;;;;24.09;20.24;102290.72;5053753;28;1304;-29
2023/01/24 12:39:05;;;;;;;;;;;;;;;27.07;20.12;102284.94;5050815;28;1253;-35
2023/01/24 12:41:33;;;;;;;;;;;;;;;27.92;19.98;102301.28;5044159;28;950;-35
2023/01/24 12:44:15;;;;;;;;;;;;;;;28.22;19.73;102304.69;5052164;28;993;-33
2023/01/24 12:46:59;;;;;;;;;;;;;;;28.56;19.29;102304.00;5048552;28;1485;-32
2023/01/24 12:49:36;;;;;;;;;;;;;;;28.72;19.18;102308.75;5066663;28;1965;-37
2023/01/24 12:52:06;;;;;;;;;;;;;;;28.81;19.11;102312.34;5054714;28;972;-31
2023/01/24 12:54:35;;;;;;;;;;;;;;;28.76;19.24;102313.84;5062386;28;1063;-34
2023/01/24 12:57:12;;;;;;;;;;;;;;;26.56;21.19;102306.69;5071533;28;1203;-34
2023/01/24 12:59:37;;;;;;;;;;;;;;;26.57;21.61;102302.13;5040453;28;897;-36
2023/01/24 13:02:17;;;;;;;;;;;;;;;27.72;21.06;102302.25;5070259;28;1088;-34
2023/01/24 13:04:46;;;;;;;;;;;;;;;28.48;20.09;102309.34;5063909;28;1131;-37
2023/01/24 13:07:30;;;;;;;;;;;;;;;28.77;19.80;102310.97;5070512;28;1200;-32
2023/01/24 13:09:58;;;;;;;;;;;;;;;28.86;19.36;102309.19;5069229;28;1910;-35
2023/01/24 13:12:23;;;;;;;;;;;;;;;28.85;19.60;102307.47;5051591;28;894;-36
2023/01/24 13:14:57;;;;;;;;;;;;;;;28.83;19.91;102307.63;5062144;28;1067;-33
2023/01/24 13:17:41;;;;;;;;;;;;;;;28.34;19.59;102310.75;5061246;28;929;-36
2023/01/24 13:20:10;;;;;;;;;;;;;;;26.02;22.94;102309.69;5067023;28;1135;-35
2023/01/24 13:22:38;;;;;;;;;;;;;;;26.71;21.94;102295.47;5049370;28;1066;-36
2023/01/24 13:25:22;;;;;;;;;;;;;;;27.63;20.43;102306.66;5065500;28;1096;-34
2023/01/24 13:27:47;;;;;;;;;;;;;;;28.09;20.06;102313.16;5073154;28;905;-33